Time;durP1;ratioP1;P1;durP2;ratioP2;P2;SDS_P1;SDS_P2;PMS_P1;PMS_P2;Temp;Humidity;BMP_temperature;BMP_pressure;BME280_temperature;BME280_humidity;BME280_pressure;Samples;Min_cycle;Max_cycle;Signal;HPM_P1;HPM_P2
2024/03/18 00:02:02;;;;;;;7.33;3.43;;;;;;;8.83;63.33;101520.56;5033203;28;20211;-82
2024/03/18 00:04:28;;;;;;;6.13;3.10;;;;;;;8.79;63.39;101517.97;5025530;28;20203;-81
2024/03/18 00:06:54;;;;;;;4.33;3.50;;;;;;;8.81;62.05;101526.66;5033088;28;20269;-82
2024/03/18 00:09:21;;;;;;;4.60;3.13;;;;;;;8.81;61.54;101532.72;5033078;28;20269;-81
2024/03/18 00:11:47;;;;;;;7.50;5.73;;;;;;;8.78;62.35;101542.22;5044385;28;20240;-82
2024/03/18 00:14:14;;;;;;;8.53;5.17;;;;;;;8.76;61.78;101550.06;5046312;28;20210;-83
2024/03/18 00:16:41;;;;;;;6.93;3.17;;;;;;;8.75;63.01;101538.75;5045894;28;20220;-82
2024/03/18 00:19:08;;;;;;;6.47;3.70;;;;;;;8.70;63.77;101535.25;5045601;28;20210;-82
2024/03/18 00:21:36;;;;;;;5.07;3.57;;;;;;;8.64;64.04;101527.41;5045022;28;20240;-83
2024/03/18 00:24:02;;;;;;;6.73;3.07;;;;;;;8.63;64.05;101517.84;5046095;28;20211;-82
2024/03/18 00:26:28;;;;;;;8.90;3.63;;;;;;;8.64;63.57;101516.13;5024372;28;20207;-83
2024/03/18 00:28:55;;;;;;;5.80;3.83;;;;;;;8.58;65.36;101496.13;5022166;28;20229;-83
2024/03/18 00:31:22;;;;;;;4.77;3.77;;;;;;;8.55;64.92;101475.31;5022961;28;20218;-82
2024/03/18 00:33:50;;;;;;;6.37;3.93;;;;;;;8.60;64.13;101485.72;5024153;28;20272;-82
2024/03/18 00:36:16;;;;;;;6.13;3.20;;;;;;;8.50;66.74;101470.06;5022699;28;20725;-82
2024/03/18 00:38:42;;;;;;;5.13;3.27;;;;;;;8.51;64.80;101460.53;5022192;28;20230;-83
2024/03/18 00:43:53;;;;;;;8.93;5.80;;;;;;;8.47;65.99;101450.97;5021587;28;20593;-83
2024/03/18 00:46:19;;;;;;;9.23;5.90;;;;;;;8.48;64.86;101444.88;5021971;28;20207;-84
2024/03/18 00:48:46;;;;;;;6.93;4.50;;;;;;;8.48;63.44;101451.00;5021859;28;20231;-82
2024/03/18 00:51:14;;;;;;;6.97;4.80;;;;;;;8.42;65.82;101456.13;5024232;28;20227;-83
2024/03/18 00:53:40;;;;;;;4.60;3.53;;;;;;;8.43;64.27;101447.47;5030164;28;20233;-82
2024/03/18 00:56:07;;;;;;;4.70;3.27;;;;;;;8.43;63.95;101457.88;5033199;28;20222;-83
2024/03/18 00:58:33;;;;;;;6.07;3.70;;;;;;;8.39;65.29;101465.63;5040374;28;20256;-84
2024/03/18 01:01:00;;;;;;;4.57;3.30;;;;;;;8.40;65.36;101441.34;5041211;28;20211;-84
2024/03/18 01:03:27;;;;;;;4.47;3.77;;;;;;;8.41;64.59;101438.78;5041495;28;20198;-83
2024/03/18 01:05:53;;;;;;;5.13;4.00;;;;;;;8.36;64.28;101450.84;5046044;28;20250;-84
2024/03/18 01:08:21;;;;;;;7.43;3.57;;;;;;;8.39;64.40;101460.44;5047140;28;20231;-83
2024/03/18 01:10:48;;;;;;;4.60;3.67;;;;;;;8.32;66.66;101450.00;5046241;28;20207;-84
2024/03/18 01:13:16;;;;;;;5.97;3.30;;;;;;;8.34;65.53;101437.84;5047218;28;20214;-83
2024/03/18 01:15:42;;;;;;;5.70;3.80;;;;;;;8.33;65.38;101430.91;5040268;28;20192;-83
2024/03/18 01:18:09;;;;;;;4.87;3.17;;;;;;;8.31;66.35;101442.16;5041318;28;20293;-82
2024/03/18 01:20:35;;;;;;;5.23;2.80;;;;;;;8.30;64.76;101427.41;5047476;28;20219;-84
2024/03/18 01:23:02;;;;;;;4.33;3.23;;;;;;;8.27;65.94;101425.66;5046893;28;20211;-84
2024/03/18 01:25:30;;;;;;;5.10;3.60;;;;;;;8.23;67.64;101413.50;5038726;28;20225;-84
2024/03/18 01:27:56;;;;;;;4.20;2.97;;;;;;;8.15;67.84;101391.78;5052790;28;20202;-84
2024/03/18 01:30:23;;;;;;;4.77;3.20;;;;;;;8.14;67.85;101371.81;5055110;28;20237;-84
2024/03/18 01:32:49;;;;;;;6.77;3.73;;;;;;;8.08;69.32;101344.03;5054505;28;20202;-84
2024/03/18 01:35:16;;;;;;;4.47;4.07;;;;;;;8.02;69.61;101317.16;5052987;28;20213;-85
2024/03/18 01:37:43;;;;;;;7.07;3.53;;;;;;;8.00;69.55;101290.28;5046497;28;20252;-83
2024/03/18 01:40:11;;;;;;;5.87;3.47;;;;;;;8.02;69.45;101284.22;5047837;28;20211;-83
2024/03/18 01:42:39;;;;;;;6.97;3.30;;;;;;;8.04;66.92;101292.88;5045638;28;20219;-82
2024/03/18 01:45:06;;;;;;;7.17;3.30;;;;;;;8.04;67.33;101308.47;5046102;28;20210;-83
2024/03/18 01:47:33;;;;;;;8.03;3.07;;;;;;;8.05;66.95;101319.78;5037793;28;20226;-83
2024/03/18 01:49:59;;;;;;;6.13;3.47;;;;;;;8.06;65.86;101326.69;5046755;28;20207;-83
2024/03/18 01:52:26;;;;;;;6.13;3.17;;;;;;;8.01;66.18;101321.50;5045235;28;20203;-83
2024/03/18 01:54:52;;;;;;;6.07;3.20;;;;;;;8.00;65.80;101324.06;5032082;28;20702;-83
2024/03/18 01:57:18;;;;;;;5.30;2.90;;;;;;;7.95;65.78;101345.72;5042877;28;20235;-82
2024/03/18 01:59:46;;;;;;;4.53;3.37;;;;;;;7.94;65.95;101346.56;5046585;28;20213;-82
2024/03/18 02:02:12;;;;;;;8.80;3.27;;;;;;;7.92;66.10;101355.22;5044296;28;20211;-82
2024/03/18 02:04:40;;;;;;;5.40;2.67;;;;;;;7.88;65.88;101348.25;5041494;28;20259;-84
2024/03/18 02:07:19;;;;;;;4.83;3.13;;;;;;;7.86;65.56;101355.19;5054284;28;20230;-83
2024/03/18 02:09:46;;;;;;;6.13;3.67;;;;;;;7.82;66.37;101346.47;5052052;28;20305;-84
2024/03/18 02:12:12;;;;;;;6.20;4.00;;;;;;;7.82;66.96;101336.09;5046411;28;20209;-83
2024/03/18 02:14:38;;;;;;;6.87;3.37;;;;;;;7.81;68.31;101317.88;5047165;28;20210;-83
2024/03/18 02:17:06;;;;;;;4.53;2.90;;;;;;;7.82;65.95;101315.28;5047311;28;20288;-84
2024/03/18 02:19:32;;;;;;;6.87;3.13;;;;;;;7.85;65.35;101338.72;5046950;28;20207;-83
2024/03/18 02:22:04;;;;;;;6.00;3.10;;;;;;;7.83;65.53;101345.63;5047204;28;20207;-83
2024/03/18 02:24:30;;;;;;;5.67;3.43;;;;;;;7.82;66.50;101338.69;5038926;28;20202;-82
2024/03/18 02:26:56;;;;;;;4.27;3.37;;;;;;;7.73;67.47;101333.41;5022916;28;20266;-82
2024/03/18 02:29:22;;;;;;;6.87;4.07;;;;;;;7.74;66.77;101329.97;5018539;28;20587;-82
2024/03/18 02:31:49;;;;;;;5.43;3.03;;;;;;;7.74;67.64;101309.19;5018577;28;20216;-82
2024/03/18 02:34:16;;;;;;;5.27;3.00;;;;;;;7.71;67.85;101309.13;5018027;28;20748;-82
2024/03/18 02:36:42;;;;;;;5.83;3.10;;;;;;;7.70;68.31;101307.41;5022800;28;20239;-82
2024/03/18 02:39:11;;;;;;;6.73;3.37;;;;;;;7.69;66.97;101295.28;5018105;28;20211;-82
2024/03/18 02:41:37;;;;;;;5.80;3.33;;;;;;;7.65;69.30;101283.13;5029660;28;20216;-83
2024/03/18 02:44:04;;;;;;;4.60;3.53;;;;;;;7.63;68.71;101259.75;5020986;28;20258;-82
2024/03/18 02:46:30;;;;;;;6.30;3.80;;;;;;;7.59;69.14;101257.09;5026038;28;20215;-82
2024/03/18 02:48:58;;;;;;;5.30;3.20;;;;;;;7.51;70.60;101241.47;5026762;28;20223;-83
2024/03/18 02:51:24;;;;;;;4.57;3.37;;;;;;;7.51;69.80;101218.06;5025629;28;20274;-83
2024/03/18 02:53:50;;;;;;;6.00;3.17;;;;;;;7.46;69.29;101218.06;5033450;28;20233;-83
2024/03/18 02:56:18;;;;;;;8.27;3.27;;;;;;;7.41;69.69;101226.69;5038540;28;20210;-83
2024/03/18 02:58:44;;;;;;;5.70;3.07;;;;;;;7.43;69.62;101227.56;5045820;28;20284;-83
2024/03/18 03:01:11;;;;;;;5.53;3.07;;;;;;;7.43;68.46;101209.38;5045854;28;20256;-82
2024/03/18 03:03:38;;;;;;;6.10;3.03;;;;;;;7.37;70.41;101199.81;5045296;28;20203;-83
2024/03/18 03:06:06;;;;;;;5.33;3.40;;;;;;;7.34;70.51;101184.22;5040737;28;20209;-82
2024/03/18 03:08:32;;;;;;;5.27;3.47;;;;;;;7.35;70.71;101176.44;5037171;28;20234;-82
2024/03/18 03:10:58;;;;;;;4.57;3.37;;;;;;;7.40;69.06;101183.41;5036881;28;20199;-82
2024/03/18 03:13:26;;;;;;;7.83;3.57;;;;;;;7.42;68.09;101199.84;5036162;28;20221;-84
2024/03/18 03:15:52;;;;;;;6.93;3.30;;;;;;;7.44;67.05;101216.31;5036031;28;20566;-82
2024/03/18 03:18:20;;;;;;;4.27;3.80;;;;;;;7.39;68.63;101228.38;5035493;28;20280;-82
2024/03/18 03:20:46;;;;;;;5.97;3.40;;;;;;;7.33;69.58;101211.03;5042552;28;20202;-84
2024/03/18 03:23:12;;;;;;;4.90;3.13;;;;;;;7.30;68.86;101195.44;5038050;28;20674;-82
2024/03/18 03:25:39;;;;;;;6.93;3.27;;;;;;;7.30;68.38;101195.44;5034123;28;20250;-83
2024/03/18 03:28:05;;;;;;;3.27;2.80;;;;;;;7.32;67.89;101196.31;5025115;28;20223;-84
2024/03/18 03:30:33;;;;;;;7.53;3.23;;;;;;;7.29;69.91;101185.91;5023304;28;20218;-82
2024/03/18 03:33:00;;;;;;;4.70;3.30;;;;;;;7.23;70.86;101165.09;5016790;28;20199;-82
2024/03/18 03:35:26;;;;;;;8.80;3.23;;;;;;;7.23;68.84;101167.69;5026393;28;20211;-82
2024/03/18 03:37:52;;;;;;;6.67;3.40;;;;;;;7.15;71.00;101178.91;5035263;28;20227;-82
2024/03/18 03:40:19;;;;;;;4.83;3.20;;;;;;;7.18;69.63;101169.41;5035407;28;20204;-82
2024/03/18 03:42:45;;;;;;;9.53;3.40;;;;;;;7.05;71.13;101160.66;5035187;28;20663;-82
2024/03/18 03:45:11;;;;;;;3.87;3.10;;;;;;;7.09;69.93;101145.09;5036104;28;20203;-82
2024/03/18 03:47:38;;;;;;;4.70;3.10;;;;;;;7.13;69.97;101149.44;5035804;28;20276;-82
2024/03/18 03:50:06;;;;;;;4.10;3.07;;;;;;;7.10;70.50;101152.03;5035593;28;20226;-82
2024/03/18 03:52:32;;;;;;;5.67;2.63;;;;;;;7.02;71.86;101132.09;5035025;28;20690;-82
2024/03/18 03:54:59;;;;;;;5.37;3.23;;;;;;;6.94;71.79;101124.25;5029231;28;20261;-82
2024/03/18 03:57:25;;;;;;;8.87;2.60;;;;;;;6.98;70.41;101118.22;5014914;28;20231;-82
2024/03/18 03:59:51;;;;;;;5.93;2.80;;;;;;;7.03;70.34;101126.03;5015219;28;20574;-82
2024/03/18 04:02:18;;;;;;;3.77;2.73;;;;;;;6.96;71.33;101112.16;5015799;28;20200;-82
2024/03/18 04:04:45;;;;;;;5.43;2.97;;;;;;;6.97;71.18;101099.16;5017202;28;20189;-82
2024/03/18 04:07:13;;;;;;;5.57;3.23;;;;;;;6.97;69.81;101113.88;5028214;28;20233;-82
2024/03/18 04:09:39;;;;;;;3.83;3.13;;;;;;;6.93;70.72;101125.09;5034742;28;20233;-82
2024/03/18 04:12:06;;;;;;;5.87;2.97;;;;;;;6.91;71.26;101124.22;5027665;28;20226;-82
2024/03/18 04:14:32;;;;;;;5.03;2.77;;;;;;;6.92;69.84;101128.56;5033823;28;20210;-82
2024/03/18 04:16:59;;;;;;;8.17;3.10;;;;;;;6.93;69.88;101130.28;5034277;28;20227;-82
2024/03/18 04:19:26;;;;;;;6.20;3.10;;;;;;;6.89;71.02;101138.91;5033693;28;20215;-81
2024/03/18 04:21:54;;;;;;;4.53;2.40;;;;;;;6.88;70.43;101119.00;5034917;28;20207;-82
2024/03/18 04:24:20;;;;;;;6.77;3.07;;;;;;;6.80;72.27;101113.75;5037514;28;20207;-81
2024/03/18 04:26:47;;;;;;;4.50;2.47;;;;;;;6.71;72.38;101096.38;5030427;28;20760;-82
2024/03/18 04:29:13;;;;;;;6.47;3.03;;;;;;;6.67;72.70;101088.56;5024612;28;20203;-83
2024/03/18 04:31:39;;;;;;;4.63;2.80;;;;;;;6.74;71.04;101074.81;5018162;28;20203;-82
2024/03/18 04:34:06;;;;;;;6.90;3.27;;;;;;;6.69;72.72;101069.56;5013738;28;20204;-82
2024/03/18 04:36:32;;;;;;;8.00;3.20;;;;;;;6.66;73.45;101050.50;5013950;28;20212;-82
2024/03/18 04:39:01;;;;;;;4.80;2.90;;;;;;;6.67;72.45;101050.53;5013216;28;20262;-83
2024/03/18 04:41:27;;;;;;;5.97;2.93;;;;;;;6.66;72.92;101048.81;5013555;28;20212;-82
2024/03/18 04:43:53;;;;;;;5.47;2.63;;;;;;;6.64;72.46;101045.34;5013679;28;20262;-82
2024/03/18 04:46:20;;;;;;;5.10;2.50;;;;;;;6.55;73.39;101040.06;5013380;28;20203;-82
2024/03/18 04:48:46;;;;;;;7.30;3.30;;;;;;;6.56;72.54;101034.91;5013865;28;20257;-82
2024/03/18 04:51:12;;;;;;;6.23;2.93;;;;;;;6.58;72.03;101034.91;5013729;28;20611;-82
2024/03/18 04:53:38;;;;;;;6.63;2.77;;;;;;;6.58;72.60;101040.09;5021605;28;20206;-82
2024/03/18 04:56:06;;;;;;;4.60;2.53;;;;;;;6.63;72.74;101029.75;5025105;28;20202;-82
2024/03/18 04:58:33;;;;;;;6.67;3.00;;;;;;;6.67;70.96;101047.94;5031137;28;20609;-82
2024/03/18 05:01:01;;;;;;;5.43;2.50;;;;;;;6.65;69.96;101059.16;5021603;28;20214;-82
2024/03/18 05:03:27;;;;;;;4.50;2.60;;;;;;;6.68;69.58;101083.41;5033524;28;20669;-83
2024/03/18 05:05:53;;;;;;;5.20;2.30;;;;;;;6.67;71.17;101097.22;5034933;28;20582;-82
2024/03/18 05:08:20;;;;;;;5.80;2.40;;;;;;;6.65;70.04;101100.66;5026747;28;20712;-81
2024/03/18 05:10:47;;;;;;;5.17;2.73;;;;;;;6.68;70.59;101095.50;5031301;28;20615;-82
2024/03/18 05:13:15;;;;;;;11.37;2.77;;;;;;;6.67;71.49;101092.03;5029454;28;20252;-82
2024/03/18 05:15:41;;;;;;;6.93;3.00;;;;;;;6.68;70.24;101104.16;5026031;28;20597;-81
2024/03/18 05:18:07;;;;;;;5.43;2.83;;;;;;;6.61;71.81;101104.97;5027328;28;20266;-83
2024/03/18 05:20:34;;;;;;;5.97;2.93;;;;;;;6.57;73.14;101079.84;5033261;28;20206;-82
2024/03/18 05:23:01;;;;;;;7.00;2.73;;;;;;;6.59;72.04;101062.56;5033801;28;20201;-80
2024/03/18 05:25:28;;;;;;;2.87;2.10;;;;;;;6.61;71.41;101058.28;5033443;28;20215;-82
2024/03/18 05:27:54;;;;;;;5.73;2.60;;;;;;;6.63;71.81;101068.66;5024417;28;20293;-82
2024/03/18 05:30:22;;;;;;;4.07;2.20;;;;;;;6.64;71.28;101083.34;5041411;28;20206;-82
2024/03/18 05:32:48;;;;;;;4.37;2.60;;;;;;;6.64;70.54;101079.06;5031805;28;20202;-82
2024/03/18 05:35:15;;;;;;;4.40;3.07;;;;;;;6.62;71.06;101077.28;5039310;28;20206;-82
2024/03/18 05:37:41;;;;;;;5.27;2.77;;;;;;;6.56;73.19;101076.41;5039653;28;20233;-83
2024/03/18 05:40:08;;;;;;;4.87;2.70;;;;;;;6.55;71.90;101058.22;5035898;28;20207;-83
2024/03/18 05:42:35;;;;;;;3.50;1.90;;;;;;;6.62;71.80;101062.63;5040906;28;20214;-82
2024/03/18 05:45:01;;;;;;;7.27;1.97;;;;;;;6.64;70.48;101076.47;5031257;28;20211;-82
2024/03/18 05:47:29;;;;;;;5.67;2.60;;;;;;;6.64;70.95;101092.03;5019346;28;20251;-82
2024/03/18 05:49:56;;;;;;;3.93;2.17;;;;;;;6.65;70.82;101098.94;5022619;28;20573;-82
2024/03/18 05:52:23;;;;;;;4.50;2.63;;;;;;;6.63;72.09;101079.91;5026687;28;20207;-83
2024/03/18 05:54:49;;;;;;;6.37;2.70;;;;;;;6.65;71.67;101061.75;5024082;28;20211;-82
2024/03/18 05:57:16;;;;;;;3.77;2.13;;;;;;;6.66;71.74;101064.38;5023013;28;20296;-83
2024/03/18 05:59:42;;;;;;;5.43;2.67;;;;;;;6.69;72.14;101047.94;5042341;28;20230;-81
2024/03/18 06:02:08;;;;;;;6.80;2.67;;;;;;;6.72;70.44;101059.22;5038422;28;20321;-82
2024/03/18 06:04:37;;;;;;;2.97;2.37;;;;;;;6.72;72.10;101056.63;5023553;28;20622;-82
2024/03/18 06:07:04;;;;;;;5.27;3.13;;;;;;;6.74;72.38;101034.16;5024056;28;20253;-80
2024/03/18 06:09:30;;;;;;;5.40;3.40;;;;;;;6.79;71.33;101051.47;5028516;28;20239;-82
2024/03/18 06:11:57;;;;;;;3.07;2.30;;;;;;;6.79;71.81;101051.47;5046254;28;20198;-83
2024/03/18 06:14:24;;;;;;;8.00;2.70;;;;;;;6.84;71.41;101053.25;5035773;28;20262;-82
2024/03/18 06:16:50;;;;;;;6.70;3.40;;;;;;;6.87;71.33;101058.44;5035097;28;20199;-82
2024/03/18 06:19:17;;;;;;;4.27;2.57;;;;;;;6.92;69.90;101076.66;5046845;28;20242;-83
2024/03/18 06:21:46;;;;;;;6.47;2.53;;;;;;;6.90;70.94;101089.63;5046850;28;20203;-83
2024/03/18 06:24:20;;;;;;;5.30;2.83;;;;;;;6.92;72.05;101069.72;5041005;28;20207;-84
2024/03/18 06:26:46;;;;;;;5.47;3.00;;;;;;;6.89;71.85;101068.84;5043887;28;20746;-83
2024/03/18 06:29:12;;;;;;;4.03;2.73;;;;;;;6.90;71.49;101066.25;5033878;28;20222;-82
2024/03/18 06:31:39;;;;;;;5.03;2.73;;;;;;;6.90;70.73;101058.47;5032107;28;20746;-82
2024/03/18 06:34:07;;;;;;;5.17;2.73;;;;;;;6.89;71.92;101063.66;5021838;28;20265;-82
2024/03/18 06:36:33;;;;;;;6.50;2.87;;;;;;;6.97;70.41;101069.75;5024284;28;20208;-82
2024/03/18 06:39:02;;;;;;;4.47;2.63;;;;;;;7.02;70.68;101075.00;5040326;28;20247;-83
2024/03/18 06:41:28;;;;;;;5.37;3.00;;;;;;;7.01;72.43;101068.03;5035140;28;20207;-83
2024/03/18 06:43:55;;;;;;;4.93;2.97;;;;;;;7.07;72.45;101044.72;5044217;28;20203;-84
2024/03/18 06:46:22;;;;;;;3.87;2.97;;;;;;;7.04;73.39;101044.72;5043231;28;20202;-82
2024/03/18 06:48:48;;;;;;;5.33;3.00;;;;;;;7.10;70.18;101053.38;5039006;28;20223;-82
2024/03/18 06:51:15;;;;;;;3.53;2.47;;;;;;;7.16;69.03;101081.97;5037341;28;20243;-82
2024/03/18 06:53:41;;;;;;;4.90;3.23;;;;;;;7.16;70.95;101096.69;5039388;28;20276;-82
2024/03/18 06:56:09;;;;;;;5.03;2.73;;;;;;;7.23;71.35;101080.28;5037058;28;20705;-83
2024/03/18 06:58:37;;;;;;;6.93;3.00;;;;;;;7.29;69.33;101090.69;5035729;28;20230;-83
2024/03/18 07:01:04;;;;;;;6.20;3.33;;;;;;;7.29;70.47;101108.84;5023732;28;20682;-82
2024/03/18 07:03:30;;;;;;;6.27;2.87;;;;;;;7.31;69.15;101109.78;5025367;28;20204;-83
2024/03/18 07:05:57;;;;;;;6.30;3.33;;;;;;;7.38;69.77;101117.59;5025427;28;20577;-82
2024/03/18 07:08:23;;;;;;;4.57;2.97;;;;;;;7.40;70.62;101108.06;5018827;28;20231;-83
2024/03/18 07:10:50;;;;;;;4.43;2.60;;;;;;;7.48;69.36;101112.44;5018381;28;20581;-82
2024/03/18 07:13:17;;;;;;;5.40;2.83;;;;;;;7.48;71.03;101115.03;5016442;28;20207;-82
2024/03/18 07:15:44;;;;;;;5.57;3.03;;;;;;;7.54;70.51;101106.41;5016601;28;20576;-83
2024/03/18 07:18:10;;;;;;;8.10;3.27;;;;;;;7.56;71.63;101089.94;5017397;28;20253;-80
2024/03/18 07:20:36;;;;;;;5.10;3.00;;;;;;;7.53;72.32;101083.88;5016522;28;20215;-80
2024/03/18 07:23:03;;;;;;;3.53;2.17;;;;;;;7.58;70.54;101079.56;5037960;28;20558;-79
2024/03/18 07:25:29;;;;;;;5.93;2.80;;;;;;;7.53;72.34;101076.97;5028106;28;20215;-79
2024/03/18 07:27:55;;;;;;;3.43;2.90;;;;;;;7.55;70.85;101075.25;5034636;28;20259;-77
2024/03/18 07:30:23;;;;;;;7.60;3.30;;;;;;;7.55;72.14;101070.03;5027439;28;20208;-79
2024/03/18 07:32:49;;;;;;;6.60;2.63;;;;;;;7.59;72.01;101057.03;5015218;28;20250;-78
2024/03/18 07:35:16;;;;;;;5.17;3.33;;;;;;;7.63;71.96;101054.47;5016060;28;20207;-79
2024/03/18 07:37:42;;;;;;;4.00;2.87;;;;;;;7.64;72.80;101047.56;5017178;28;20231;-78
2024/03/18 07:40:11;;;;;;;5.67;3.17;;;;;;;7.65;71.73;101037.16;5035512;28;20238;-78
2024/03/18 07:42:38;;;;;;;5.37;4.00;;;;;;;7.69;72.42;101035.41;5034917;28;20206;-79
2024/03/18 07:45:06;;;;;;;5.17;2.83;;;;;;;7.72;71.49;101041.50;5031927;28;20687;-78
2024/03/18 07:47:35;;;;;;;3.80;3.40;;;;;;;7.74;71.46;101041.50;5030672;28;20237;-79
2024/03/18 07:50:03;;;;;;;5.50;3.13;;;;;;;7.73;71.68;101034.56;5024662;28;20210;-80
2024/03/18 07:52:29;;;;;;;8.00;3.27;;;;;;;7.75;71.72;101036.31;5030916;28;20231;-77
2024/03/18 07:54:55;;;;;;;4.47;3.17;;;;;;;7.75;72.40;101033.72;5032261;28;20194;-78
2024/03/18 07:57:22;;;;;;;4.17;3.20;;;;;;;7.78;72.79;101032.00;5033763;28;20229;-78
2024/03/18 07:59:48;;;;;;;4.97;3.10;;;;;;;7.72;73.68;101002.53;5031959;28;20262;-78
2024/03/18 08:02:14;;;;;;;5.60;3.20;;;;;;;7.72;73.59;101010.31;5014126;28;20224;-79
2024/03/18 08:04:42;;;;;;;4.00;3.23;;;;;;;7.78;72.91;100996.47;5016530;28;20266;-80
2024/03/18 08:07:08;;;;;;;4.43;2.83;;;;;;;7.83;72.75;101001.66;5017659;28;20230;-80
2024/03/18 08:09:35;;;;;;;5.63;3.17;;;;;;;7.81;73.26;101001.69;5030617;28;20198;-79
2024/03/18 08:12:01;;;;;;;4.93;3.17;;;;;;;7.91;73.67;100992.16;5026392;28;20588;-81
2024/03/18 08:14:27;;;;;;;3.87;3.13;;;;;;;7.99;72.88;100995.63;5033518;28;20677;-78
2024/03/18 08:16:55;;;;;;;4.13;3.13;;;;;;;8.06;72.39;100997.34;5033632;28;20677;-79
2024/03/18 08:19:21;;;;;;;6.03;4.07;;;;;;;8.10;72.52;101000.81;5031174;28;20225;-80
2024/03/18 08:21:49;;;;;;;5.37;3.90;;;;;;;8.12;73.56;100999.94;5024137;28;20203;-78
2024/03/18 08:24:16;;;;;;;6.47;4.97;;;;;;;8.22;71.90;101007.75;5034493;28;20247;-78
2024/03/18 08:26:47;;;;;;;6.80;4.20;;;;;;;8.28;72.63;101015.56;4510723;28;10002078;-77
2024/03/18 08:29:13;;;;;;;8.23;5.37;;;;;;;8.37;71.55;101025.97;5032177;28;20230;-78
2024/03/18 08:31:40;;;;;;;6.63;4.07;;;;;;;8.43;71.58;101028.59;5021362;28;20603;-78
2024/03/18 08:34:06;;;;;;;5.20;3.93;;;;;;;8.48;71.22;101044.19;5016287;28;20214;-78
2024/03/18 08:36:32;;;;;;;5.00;4.13;;;;;;;8.51;70.68;101049.41;5011628;28;20238;-77
2024/03/18 08:39:00;;;;;;;7.20;4.53;;;;;;;8.57;69.40;101064.16;5029091;28;20259;-78
2024/03/18 08:41:26;;;;;;;5.50;4.43;;;;;;;8.59;69.07;101085.84;5037337;28;20216;-80
2024/03/18 08:43:53;;;;;;;5.87;4.20;;;;;;;8.63;68.21;101114.47;5032819;28;20203;-79
2024/03/18 08:46:19;;;;;;;5.77;4.20;;;;;;;8.63;69.22;101124.00;5042285;28;20206;-79
2024/03/18 08:48:45;;;;;;;4.97;4.50;;;;;;;8.70;69.09;101125.72;5030503;28;20714;-80
2024/03/18 08:51:13;;;;;;;10.10;4.53;;;;;;;8.76;67.82;101141.38;5018966;28;20662;-81
2024/03/18 08:53:39;;;;;;;7.10;4.33;;;;;;;8.80;67.22;101160.44;5024495;28;20275;-80
2024/03/18 08:56:07;;;;;;;6.37;4.70;;;;;;;8.79;67.41;101182.13;5012358;28;20206;-79
2024/03/18 08:58:33;;;;;;;8.23;4.80;;;;;;;8.85;67.76;101167.38;5020088;28;20269;-78
2024/03/18 09:01:01;;;;;;;5.90;4.63;;;;;;;8.94;66.96;101174.34;5027849;28;20215;-78
2024/03/18 09:03:27;;;;;;;5.67;4.10;;;;;;;9.01;66.47;101186.47;5020198;28;20753;-79
2024/03/18 09:05:55;;;;;;;5.20;4.70;;;;;;;9.03;66.38;101200.34;5013624;28;20213;-78
2024/03/18 09:08:22;;;;;;;8.37;5.63;;;;;;;9.10;65.58;101216.88;5018808;28;20233;-78
2024/03/18 09:10:48;;;;;;;5.73;4.13;;;;;;;9.07;65.68;101237.69;5032751;28;20198;-78
2024/03/18 09:13:16;;;;;;;5.10;4.60;;;;;;;9.05;65.97;101232.47;5027656;28;20209;-77
2024/03/18 09:15:43;;;;;;;7.30;4.87;;;;;;;9.08;66.00;101242.03;5014504;28;20232;-77
2024/03/18 09:18:10;;;;;;;7.40;5.17;;;;;;;9.22;66.67;101239.44;5017086;28;20950;-77
2024/03/18 09:20:39;;;;;;;6.63;5.10;;;;;;;9.29;65.25;101249.81;5033905;28;20280;-79
2024/03/18 09:23:07;;;;;;;5.77;4.57;;;;;;;9.40;66.24;101247.22;5030934;28;20268;-78
2024/03/18 09:25:33;;;;;;;5.10;4.47;;;;;;;9.49;65.33;101251.53;5017409;28;20218;-79
2024/03/18 09:27:59;;;;;;;9.83;5.50;;;;;;;9.58;65.49;101250.69;5029172;28;20369;-79
2024/03/18 09:30:28;;;;;;;6.50;5.00;;;;;;;9.69;65.31;101246.28;5032713;28;20689;-79
2024/03/18 09:32:54;;;;;;;5.20;4.60;;;;;;;9.76;63.31;101270.63;5019552;28;20273;-78
2024/03/18 09:35:22;;;;;;;8.00;5.37;;;;;;;9.80;62.88;101291.47;5018904;28;20543;-78
2024/03/18 09:37:48;;;;;;;6.27;4.73;;;;;;;9.82;63.13;101309.72;5015706;28;20235;-77
2024/03/18 09:40:15;;;;;;;6.40;5.43;;;;;;;9.86;62.97;101319.28;5015769;28;20228;-78
2024/03/18 09:42:42;;;;;;;7.47;4.97;;;;;;;9.88;62.84;101327.97;5018120;28;20216;-78
2024/03/18 09:45:14;;;;;;;8.77;5.67;;;;;;;9.87;64.25;101326.22;5030340;28;20210;-78
2024/03/18 09:47:43;;;;;;;7.30;4.63;;;;;;;9.82;64.62;101314.94;5038122;28;20230;-78
2024/03/18 09:50:13;;;;;;;6.07;4.90;;;;;;;9.83;65.09;101298.41;5034365;28;20256;-78
2024/03/18 09:52:42;;;;;;;5.90;5.27;;;;;;;9.93;64.20;101302.75;5025339;28;20990;-78
2024/03/18 09:55:20;;;;;;;6.13;5.10;;;;;;;10.00;64.89;101298.38;5029405;28;20199;-78
2024/03/18 09:57:47;;;;;;;6.67;5.90;;;;;;;10.08;64.91;101292.25;5036469;28;20228;-78
2024/03/18 10:00:14;;;;;;;6.10;5.50;;;;;;;10.16;62.33;101300.06;5032879;28;20224;-79
2024/03/18 10:02:42;;;;;;;6.83;5.50;;;;;;;10.11;62.80;101334.00;5016281;28;20270;-78
2024/03/18 10:05:09;;;;;;;7.47;5.40;;;;;;;10.14;63.92;101325.28;5036908;28;20940;-78
2024/03/18 10:07:36;;;;;;;6.43;4.50;;;;;;;10.26;62.93;101330.47;5036002;28;20242;-78
2024/03/18 10:10:04;;;;;;;7.60;4.90;;;;;;;10.28;64.36;101335.69;5036102;28;20208;-78
2024/03/18 10:12:30;;;;;;;6.57;4.87;;;;;;;10.34;64.84;101314.81;5034945;28;20211;-79
2024/03/18 10:14:57;;;;;;;7.90;4.90;;;;;;;10.45;65.02;101300.00;5035590;28;20209;-77
2024/03/18 10:17:24;;;;;;;7.50;5.40;;;;;;;10.52;65.23;101287.78;5035493;28;20240;-78
2024/03/18 10:19:52;;;;;;;6.47;5.77;;;;;;;10.59;67.26;101259.91;5035309;28;20250;-77
2024/03/18 10:22:18;;;;;;;6.53;5.30;;;;;;;10.63;69.25;101204.19;5028787;28;20584;-77
2024/03/18 10:24:45;;;;;;;6.23;5.63;;;;;;;10.70;70.21;101162.34;5035672;28;20205;-77
2024/03/18 10:27:13;;;;;;;7.87;5.33;;;;;;;10.75;70.01;101127.50;5026494;28;20789;-77
2024/03/18 10:29:40;;;;;;;6.57;5.47;;;;;;;10.86;69.55;101099.53;5036179;28;20206;-78
2024/03/18 10:32:21;;;;;;;6.63;5.57;;;;;;;10.97;68.12;101120.34;5026245;28;20303;-78
2024/03/18 10:34:51;;;;;;;6.50;5.13;;;;;;;10.82;69.14;101124.81;5034534;28;20208;-78
2024/03/18 10:37:22;;;;;;;9.07;6.47;;;;;;;10.83;68.87;101115.25;5031552;28;20279;-78
2024/03/18 10:40:00;;;;;;;6.63;6.03;;;;;;;10.93;69.02;101104.69;5017531;28;20582;-78
2024/03/18 10:42:31;;;;;;;6.40;5.80;;;;;;;11.01;67.81;101115.06;5012962;28;20234;-77
2024/03/18 10:45:10;;;;;;;10.00;6.20;;;;;;;11.01;68.48;101133.34;5012709;28;20257;-78
2024/03/18 10:47:37;;;;;;;6.43;5.30;;;;;;;11.16;65.54;101134.06;5012849;28;20234;-78
2024/03/18 10:50:04;;;;;;;6.30;5.70;;;;;;;11.15;64.69;101188.09;5015239;28;20233;-78
2024/03/18 10:52:31;;;;;;;7.00;6.30;;;;;;;11.14;63.23;101233.41;5015610;28;20249;-78
2024/03/18 10:54:58;;;;;;;9.50;6.77;;;;;;;11.27;65.75;101234.13;5015328;28;20216;-77
2024/03/18 10:57:26;;;;;;;8.40;6.67;;;;;;;11.46;62.84;101243.56;5014451;28;20234;-79
2024/03/18 10:59:52;;;;;;;9.80;6.10;;;;;;;11.59;60.83;101299.19;5025444;28;20275;-79
2024/03/18 11:02:27;;;;;;;6.63;5.30;;;;;;;11.64;61.07;101325.31;5027075;28;20262;-78
2024/03/18 11:04:56;;;;;;;6.23;5.63;;;;;;;11.70;62.07;101331.34;5035781;28;20729;-78
2024/03/18 11:07:29;;;;;;;6.77;6.03;;;;;;;11.75;62.18;101338.28;5025760;28;20233;-79
2024/03/18 11:10:03;;;;;;;7.30;6.57;;;;;;;11.81;63.22;101314.69;5034653;28;20257;-78
2024/03/18 11:12:33;;;;;;;7.60;6.33;;;;;;;11.98;64.00;101289.25;5034170;28;20231;-78
2024/03/18 11:15:06;;;;;;;6.77;6.10;;;;;;;12.03;63.22;101289.19;5034783;28;20217;-79
2024/03/18 11:17:32;;;;;;;7.67;6.80;;;;;;;12.13;62.28;101303.94;5034222;28;20258;-78
2024/03/18 11:19:59;;;;;;;10.93;6.50;;;;;;;12.26;59.78;101321.19;5034190;28;20316;-77
2024/03/18 11:22:25;;;;;;;8.20;7.40;;;;;;;12.41;57.60;101374.28;5034999;28;20204;-79
2024/03/18 11:24:53;;;;;;;6.97;6.27;;;;;;;12.55;56.19;101437.84;5026729;28;20209;-79
2024/03/18 11:27:21;;;;;;;6.87;6.23;;;;;;;12.58;57.19;101461.38;5033846;28;20226;-79
2024/03/18 11:29:50;;;;;;;7.60;6.20;;;;;;;12.67;56.11;101470.91;5034588;28;20216;-78
2024/03/18 11:32:18;;;;;;;6.10;5.60;;;;;;;12.62;56.60;101497.13;5023300;28;20203;-78
2024/03/18 11:34:44;;;;;;;7.77;6.37;;;;;;;12.63;55.85;101511.97;5014612;28;20268;-78